Islamorada, FL

10:11 AM EST on December 25, 2014 (GMT -0500)
APRSWXNET Islamorada FL US | Change Station
CLOSE
Current Station
Personal Weather Station
Location: Islamorada, FL
Elevation: 15 ft
Nearby Weather Stations

Elev 15 ft 24.92 °N, 80.64 °W | Updated 38 minutes ago

Partly Cloudy
Partly Cloudy
72 °F
Feels Like 71 °F
N
12
Wind Variable Wind from NNE
Gusts 20.0 mph

Today
High -- | Low -- °F
--% Chance of Precip.
Yesterday
High -- | Low -- °F
Precip. -- in
7:04 AM 5:40 PM
Waxing Crescent, 17% visible
Pressure 30.16 in
Visibility 10.0 miles
Clouds Overcast 2200 ft
Heat Index 71 °F
Dew Point 67 °F
Humidity 84%
Rainfall 0.27 in
Snow Depth Not available.
UV 1 out of 12
Pollen 2.60 out of 12
Air Quality Not available.
Flu Activity Not available.
METAR KHST 251458Z AUTO 33012KT 10SM OVC022 22/19 A3015 RMK AO2 SLP213 60001 T02180186 52025 $

More Conditions Fewer Conditions

Pressure 30.16 in
Visibility 10.0 miles
Clouds Overcast 2200 ft
Heat Index 71 °F
Dew Point 67 °F
Humidity 84%
Rainfall 0.27 in
Snow Depth Not available.
UV 1 out of 12
Pollen 2.60 out of 12
Air Quality Not available.
Flu Activity Not available.
METAR KHST 251458Z AUTO 33012KT 10SM OVC022 22/19 A3015 RMK AO2 SLP213 60001 T02180186 52025 $

More Conditions Fewer Conditions

Nowcast | as of 9:00 am EST on December 25, 2014

Through 1000 am...scattered to numerous showers will continue to impact the waters south of the island chain. Showers are moving toward the north northeast at 25 knots. Mariners can expect winds up to 25 knots...moderate to locally heavy rainfall and reduced visibility. Over land ponding of water will continue to persist as it slowly drain.

×

10-Day Weather Forecast

Almanac

Astronomy

Dec. 25, 2014 Rise Set
Actual Time
Civil Twilight
Nautical Twilight
Astronomical Twilight
Moon
Length of Visible Light
Length of Day
Tomorrow will be .
, % of the Moon is Illuminated

Today's Extremes

State Highs State Lows

Community

WunderPhotos

Upload Photos

1,780,298 photos uploaded!

WunderBlogs® & News

Nearby

Air Quality

  Air Quality AQ Index Pollutant
Not available.

Snow Depth

Station Depth Elevation

Earthquake Activity

City Distance Mag. Time & Date
Minimum magnitude displayed is 2.5.

Coastal Water Temperatures

Place Temperature

Nearby Weather Stations